createdAt,value
2022-10-30T00:00:46.989Z,6.72
2022-10-30T00:01:48.600Z,6.55
2022-10-30T00:02:50.266Z,6.70
2022-10-30T00:03:51.846Z,6.32
2022-10-30T00:04:53.366Z,6.38
2022-10-30T00:05:55.302Z,6.93
2022-10-30T00:06:56.932Z,6.55
2022-10-30T00:07:59.147Z,6.20
2022-10-30T00:09:00.996Z,5.82
2022-10-30T00:10:02.573Z,6.50
2022-10-30T00:11:09.455Z,6.45
2022-10-30T00:12:11.019Z,6.60
2022-10-30T00:13:13.802Z,6.00
2022-10-30T00:14:15.407Z,6.28
2022-10-30T00:15:17.118Z,6.45
2022-10-30T00:16:18.696Z,6.70
2022-10-30T00:17:20.215Z,6.13
2022-10-30T00:18:21.933Z,6.10
2022-10-30T00:19:23.496Z,6.22
2022-10-30T00:20:25.244Z,6.95
2022-10-30T00:21:26.842Z,6.32
2022-10-30T00:22:28.436Z,6.15
2022-10-30T00:23:29.948Z,5.90
2022-10-30T00:24:31.473Z,6.10
2022-10-30T00:25:35.325Z,6.40
2022-10-30T00:26:36.852Z,6.55
2022-10-30T00:27:38.408Z,6.35
2022-10-30T00:28:40.035Z,5.95
2022-10-30T00:29:41.904Z,6.55
2022-10-30T00:30:43.441Z,6.38
2022-10-30T00:31:45.045Z,6.40
2022-10-30T00:32:46.573Z,6.47
2022-10-30T00:33:52.637Z,6.38
2022-10-30T00:34:54.224Z,6.70
2022-10-30T00:35:55.798Z,6.18
2022-10-30T00:36:57.367Z,6.22
2022-10-30T00:38:00.798Z,6.53
2022-10-30T00:39:03.999Z,6.10
2022-10-30T00:40:06.809Z,6.00
2022-10-30T00:41:15.137Z,6.22
2022-10-30T00:42:17.672Z,6.22
2022-10-30T00:43:27.150Z,5.82
2022-10-30T00:44:50.829Z,5.80
2022-10-30T00:45:52.534Z,6.18
2022-10-30T00:46:54.377Z,6.10
2022-10-30T00:48:01.743Z,6.28
2022-10-30T00:49:13.875Z,6.32
2022-10-30T00:50:22.387Z,6.40
2022-10-30T00:51:25.240Z,6.20
2022-10-30T00:52:30.191Z,5.85
2022-10-30T00:53:32.155Z,6.30
2022-10-30T00:54:35.626Z,6.53
2022-10-30T00:55:44.109Z,6.07
2022-10-30T00:56:48.868Z,5.90
2022-10-30T00:57:50.945Z,6.22
2022-10-30T00:59:06.393Z,5.80
2022-10-30T01:00:09.361Z,5.68
2022-10-30T01:01:16.878Z,6.10
2022-10-30T01:02:20.348Z,6.07
2022-10-30T01:03:23.217Z,6.05
2022-10-30T01:04:29.949Z,6.55
2022-10-30T01:05:33.529Z,6.30
2022-10-30T01:06:38.922Z,6.03
2022-10-30T01:07:40.437Z,5.80
2022-10-30T01:08:43.104Z,6.00
2022-10-30T01:09:46.933Z,5.85
2022-10-30T01:10:49.576Z,5.90
2022-10-30T01:11:51.157Z,6.20
2022-10-30T01:12:54.201Z,6.07
2022-10-30T01:13:58.820Z,6.05
2022-10-30T01:15:01.026Z,5.45
2022-10-30T01:16:20.554Z,6.18
2022-10-30T01:17:37.267Z,6.10
2022-10-30T01:18:47.801Z,5.95
2022-10-30T01:20:13.429Z,5.82
2022-10-30T01:21:34.262Z,6.07
2022-10-30T01:22:45.628Z,5.68
2022-10-30T01:24:10.360Z,6.22
2022-10-30T01:25:30.403Z,6.18
2022-10-30T01:26:40.919Z,5.38
2022-10-30T01:28:02.133Z,5.65
2022-10-30T01:29:20.176Z,6.00
2022-10-30T01:30:41.201Z,5.60
2022-10-30T01:31:58.657Z,5.70
2022-10-30T01:33:05.865Z,5.53
2022-10-30T01:34:25.653Z,5.80
2022-10-30T01:35:47.388Z,5.55
2022-10-30T01:37:06.505Z,5.32
2022-10-30T01:38:17.423Z,5.65
2022-10-30T01:39:22.748Z,5.60
2022-10-30T01:40:24.320Z,5.75
2022-10-30T01:41:25.842Z,5.75
2022-10-30T01:42:45.671Z,5.72
2022-10-30T01:43:50.990Z,5.50
2022-10-30T01:44:52.550Z,5.35
2022-10-30T01:46:12.738Z,5.90
2022-10-30T01:47:44.137Z,5.70
2022-10-30T01:49:16.201Z,5.40
2022-10-30T01:50:37.051Z,5.65
2022-10-30T01:51:51.532Z,5.53
2022-10-30T01:53:03.735Z,5.30
2022-10-30T01:54:23.711Z,5.80
2022-10-30T01:55:43.008Z,5.15
2022-10-30T01:56:47.269Z,5.40
2022-10-30T01:58:02.463Z,5.20
2022-10-30T01:59:43.099Z,5.72
2022-10-30T02:00:47.705Z,4.90
2022-10-30T02:01:50.008Z,5.38
2022-10-30T02:02:52.116Z,5.47
2022-10-30T02:03:53.899Z,4.93
2022-10-30T02:04:55.723Z,5.40
2022-10-30T02:05:57.326Z,5.32
2022-10-30T02:06:58.902Z,5.38
2022-10-30T02:08:02.003Z,5.25
2022-10-30T02:09:04.771Z,5.50
2022-10-30T02:10:06.781Z,5.47
2022-10-30T02:11:10.736Z,5.10
2022-10-30T02:12:13.357Z,5.57
2022-10-30T02:13:15.513Z,5.60
2022-10-30T02:14:41.141Z,5.40
2022-10-30T02:15:45.080Z,5.03
2022-10-30T02:16:51.629Z,5.20
2022-10-30T02:17:54.655Z,5.53
2022-10-30T02:18:56.334Z,5.25
2022-10-30T02:19:57.874Z,5.07
2022-10-30T02:20:59.389Z,5.07
2022-10-30T02:22:01.400Z,5.07
2022-10-30T02:23:03.475Z,4.88
2022-10-30T02:24:05.792Z,4.97
2022-10-30T02:25:07.599Z,5.57
2022-10-30T02:26:09.106Z,5.10
2022-10-30T02:27:10.793Z,5.00
2022-10-30T02:28:12.820Z,5.43
2022-10-30T02:29:14.493Z,4.82
2022-10-30T02:30:16.391Z,5.35
2022-10-30T02:31:19.299Z,4.97
2022-10-30T02:32:20.822Z,5.20
2022-10-30T02:33:24.533Z,5.53
2022-10-30T02:34:26.155Z,5.20
2022-10-30T02:35:27.679Z,5.35
2022-10-30T02:36:29.271Z,5.05
2022-10-30T02:37:32.269Z,4.93
2022-10-30T02:38:33.826Z,5.38
2022-10-30T02:39:35.374Z,4.95
2022-10-30T02:40:36.972Z,4.90
2022-10-30T02:41:38.979Z,5.07
2022-10-30T02:42:40.499Z,5.18
2022-10-30T02:43:42.133Z,5.10
2022-10-30T02:44:43.692Z,4.78
2022-10-30T02:45:51.826Z,4.90
2022-10-30T02:46:53.355Z,4.68
2022-10-30T02:47:55.040Z,5.05
2022-10-30T02:48:56.710Z,5.03
2022-10-30T02:49:58.222Z,4.82
2022-10-30T02:51:01.259Z,4.80
2022-10-30T02:52:03.276Z,4.82
2022-10-30T02:53:04.844Z,4.95
2022-10-30T02:54:06.373Z,4.70
2022-10-30T02:55:08.340Z,4.75
2022-10-30T02:56:14.404Z,4.60
2022-10-30T02:57:15.977Z,5.10
2022-10-30T02:58:17.501Z,4.90
2022-10-30T02:59:20.623Z,4.80
2022-10-30T03:00:22.150Z,4.85
2022-10-30T03:01:23.743Z,5.22
2022-10-30T03:02:25.403Z,4.50
2022-10-30T03:03:27.014Z,4.88
2022-10-30T03:04:28.771Z,5.05
2022-10-30T03:05:30.315Z,4.95
2022-10-30T03:06:32.132Z,4.80
2022-10-30T03:07:33.850Z,5.03
2022-10-30T03:08:35.705Z,5.38
2022-10-30T03:09:37.239Z,5.13
2022-10-30T03:10:38.784Z,4.55
2022-10-30T03:11:40.365Z,4.68
2022-10-30T03:12:41.886Z,5.13
2022-10-30T03:13:45.300Z,4.80
2022-10-30T03:14:46.813Z,5.20
2022-10-30T03:15:48.322Z,4.35
2022-10-30T03:16:52.489Z,4.45
2022-10-30T03:17:54.081Z,4.88
2022-10-30T03:18:56.124Z,4.80
2022-10-30T03:19:57.675Z,5.18
2022-10-30T03:21:04.532Z,5.03
2022-10-30T03:22:06.088Z,5.13
2022-10-30T03:23:07.604Z,4.93
2022-10-30T03:24:09.105Z,5.07
2022-10-30T03:25:10.612Z,5.10
2022-10-30T03:26:12.433Z,4.93
2022-10-30T03:27:14.008Z,4.57
2022-10-30T03:28:15.513Z,5.00
2022-10-30T03:29:17.058Z,4.80
2022-10-30T03:30:18.559Z,4.90
2022-10-30T03:31:20.405Z,4.97
2022-10-30T03:32:21.966Z,5.10
2022-10-30T03:33:23.571Z,5.00
2022-10-30T03:34:25.077Z,4.85
2022-10-30T03:35:26.734Z,4.80
2022-10-30T03:36:28.294Z,4.93
2022-10-30T03:37:29.810Z,4.80
2022-10-30T03:38:31.705Z,4.70
2022-10-30T03:39:33.323Z,4.78
2022-10-30T03:40:34.818Z,4.45
2022-10-30T03:41:36.337Z,4.80
2022-10-30T03:42:40.150Z,4.57
2022-10-30T03:43:41.690Z,4.55
2022-10-30T03:44:43.217Z,4.75
2022-10-30T03:45:49.497Z,4.40
2022-10-30T03:46:50.995Z,4.90
2022-10-30T03:47:52.511Z,4.70
2022-10-30T03:48:54.472Z,5.00
2022-10-30T03:49:55.973Z,4.65
2022-10-30T03:50:59.480Z,4.85
2022-10-30T03:52:00.982Z,4.72
2022-10-30T03:53:03.471Z,4.60
2022-10-30T03:54:05.039Z,4.70
2022-10-30T03:55:07.062Z,4.47
2022-10-30T03:56:10.070Z,4.88
2022-10-30T03:57:11.645Z,4.80
2022-10-30T03:58:13.193Z,4.90
2022-10-30T03:59:14.739Z,4.90
2022-10-30T04:00:17.277Z,4.90
2022-10-30T04:01:19.305Z,4.82
2022-10-30T04:02:20.918Z,4.43
2022-10-30T04:03:22.439Z,5.07
2022-10-30T04:04:24.034Z,4.57
2022-10-30T04:05:26.758Z,4.80
2022-10-30T04:06:28.326Z,4.78
2022-10-30T04:07:29.942Z,4.45
2022-10-30T04:08:31.443Z,4.75
2022-10-30T04:09:33.032Z,4.75
2022-10-30T04:10:35.364Z,4.25
2022-10-30T04:11:36.873Z,4.80
2022-10-30T04:12:39.109Z,4.53
2022-10-30T04:13:40.672Z,4.80
2022-10-30T04:14:42.212Z,5.05
2022-10-30T04:15:44.021Z,4.85
2022-10-30T04:16:45.570Z,4.45
2022-10-30T04:17:51.536Z,4.82
2022-10-30T04:18:53.087Z,4.90
2022-10-30T04:19:54.619Z,4.65
2022-10-30T04:20:56.249Z,4.28
2022-10-30T04:21:58.170Z,4.75
2022-10-30T04:23:03.324Z,4.53
2022-10-30T04:24:05.138Z,4.75
2022-10-30T04:25:06.957Z,5.30
2022-10-30T04:26:08.767Z,4.63
2022-10-30T04:27:10.265Z,4.75
2022-10-30T04:28:12.249Z,4.82
2022-10-30T04:29:13.751Z,4.80
2022-10-30T04:30:15.700Z,4.63
2022-10-30T04:31:17.208Z,4.57
2022-10-30T04:32:19.422Z,4.80
2022-10-30T04:33:20.965Z,4.90
2022-10-30T04:34:22.566Z,4.70
2022-10-30T04:35:26.657Z,5.32
2022-10-30T04:36:32.967Z,5.03
2022-10-30T04:37:34.509Z,4.30
2022-10-30T04:38:36.045Z,4.45
2022-10-30T04:39:40.989Z,4.28
2022-10-30T04:40:46.913Z,4.80
2022-10-30T04:41:48.429Z,4.18
2022-10-30T04:42:50.125Z,4.60
2022-10-30T04:43:52.205Z,4.70
2022-10-30T04:44:53.796Z,4.20
2022-10-30T04:45:55.303Z,4.20
2022-10-30T04:46:56.866Z,4.88
2022-10-30T04:48:06.571Z,4.13
2022-10-30T04:49:08.090Z,4.40
2022-10-30T04:50:10.410Z,4.40
2022-10-30T04:51:12.377Z,3.95
2022-10-30T04:52:13.878Z,4.40
2022-10-30T04:53:17.877Z,4.60
2022-10-30T04:54:21.057Z,4.45
2022-10-30T04:55:22.564Z,4.57
2022-10-30T04:56:24.260Z,4.03
2022-10-30T04:57:25.854Z,3.67
2022-10-30T04:58:27.369Z,4.68
2022-10-30T04:59:28.886Z,4.35
2022-10-30T05:00:32.004Z,4.70
2022-10-30T05:01:33.590Z,4.57
2022-10-30T05:02:39.229Z,4.53
2022-10-30T05:03:41.009Z,5.03
2022-10-30T05:04:42.564Z,4.50
2022-10-30T05:05:44.502Z,4.60
2022-10-30T05:06:46.023Z,4.60
2022-10-30T05:07:47.574Z,4.30
2022-10-30T05:08:49.675Z,4.80
2022-10-30T05:09:51.242Z,4.38
2022-10-30T05:10:53.760Z,4.43
2022-10-30T05:11:58.977Z,4.50
2022-10-30T05:13:01.663Z,4.15
2022-10-30T05:14:03.498Z,4.15
2022-10-30T05:15:05.467Z,4.10
2022-10-30T05:16:07.527Z,3.95
2022-10-30T05:17:09.070Z,4.30
2022-10-30T05:18:10.616Z,4.40
2022-10-30T05:19:12.148Z,4.38
2022-10-30T05:20:16.385Z,4.07
2022-10-30T05:21:20.464Z,4.03
2022-10-30T05:22:21.976Z,4.35
2022-10-30T05:23:23.508Z,4.60
2022-10-30T05:24:25.056Z,4.60
2022-10-30T05:25:27.694Z,4.28
2022-10-30T05:26:29.192Z,4.80
2022-10-30T05:27:30.699Z,4.38
2022-10-30T05:28:32.309Z,4.15
2022-10-30T05:29:33.851Z,4.50
2022-10-30T05:30:35.953Z,4.10
2022-10-30T05:31:37.498Z,4.07
2022-10-30T05:32:39.039Z,4.07
2022-10-30T05:33:40.573Z,4.32
2022-10-30T05:34:42.234Z,4.50
2022-10-30T05:35:43.754Z,4.43
2022-10-30T05:36:45.651Z,4.10
2022-10-30T05:37:47.178Z,4.20
2022-10-30T05:38:49.000Z,4.40
2022-10-30T05:39:50.554Z,4.32
2022-10-30T05:40:52.086Z,4.03
2022-10-30T05:41:53.752Z,4.28
2022-10-30T05:42:55.560Z,4.35
2022-10-30T05:43:57.351Z,4.35
2022-10-30T05:45:01.654Z,4.72
2022-10-30T05:46:03.851Z,4.25
2022-10-30T05:47:05.393Z,4.43
2022-10-30T05:48:07.571Z,4.10
2022-10-30T05:49:09.120Z,4.38
2022-10-30T05:50:12.391Z,4.47
2022-10-30T05:51:13.932Z,4.13
2022-10-30T05:52:15.519Z,3.97
2022-10-30T05:53:17.046Z,4.55
2022-10-30T05:54:18.552Z,4.40
2022-10-30T05:55:20.046Z,4.47
2022-10-30T05:56:21.588Z,4.45
2022-10-30T05:57:23.193Z,4.68
2022-10-30T05:58:24.969Z,4.72
2022-10-30T05:59:26.475Z,4.60
2022-10-30T06:00:32.113Z,4.47
2022-10-30T06:01:33.866Z,4.30
2022-10-30T06:02:35.557Z,4.25
2022-10-30T06:03:37.055Z,4.60
2022-10-30T06:04:38.548Z,4.55
2022-10-30T06:05:40.423Z,4.90
2022-10-30T06:06:41.956Z,4.65
2022-10-30T06:07:43.536Z,4.68
2022-10-30T06:08:45.116Z,4.55
2022-10-30T06:09:46.668Z,4.47
2022-10-30T06:10:48.169Z,4.05
2022-10-30T06:11:49.740Z,4.45
2022-10-30T06:13:00.389Z,4.03
2022-10-30T06:14:02.425Z,4.53
2022-10-30T06:15:04.330Z,4.32
2022-10-30T06:16:06.191Z,4.03
2022-10-30T06:17:07.833Z,4.50
2022-10-30T06:18:09.453Z,4.57
2022-10-30T06:19:15.605Z,4.40
2022-10-30T06:20:21.834Z,4.40
2022-10-30T06:21:23.461Z,4.40
2022-10-30T06:22:24.961Z,4.78
2022-10-30T06:23:28.709Z,4.13
2022-10-30T06:24:30.246Z,4.35
2022-10-30T06:25:37.905Z,4.50
2022-10-30T06:26:42.098Z,4.60
2022-10-30T06:27:43.641Z,4.40
2022-10-30T06:28:45.222Z,4.22
2022-10-30T06:29:46.780Z,4.32
2022-10-30T06:30:48.400Z,4.43
2022-10-30T06:31:49.997Z,4.60
2022-10-30T06:33:00.449Z,4.43
2022-10-30T06:34:02.318Z,4.40
2022-10-30T06:35:04.160Z,4.80
2022-10-30T06:36:05.920Z,4.50
2022-10-30T06:37:07.630Z,4.38
2022-10-30T06:38:11.977Z,4.47
2022-10-30T06:39:13.555Z,4.20
2022-10-30T06:40:16.156Z,4.40
2022-10-30T06:41:17.708Z,4.20
2022-10-30T06:42:19.202Z,5.10
2022-10-30T06:43:21.086Z,4.40
2022-10-30T06:44:22.643Z,4.63
2022-10-30T06:45:25.019Z,4.50
2022-10-30T06:46:30.560Z,4.53
2022-10-30T06:47:35.909Z,4.88
2022-10-30T06:48:37.500Z,4.30
2022-10-30T06:49:38.993Z,4.50
2022-10-30T06:50:40.632Z,4.57
2022-10-30T06:51:42.393Z,4.60
2022-10-30T06:52:44.121Z,4.43
2022-10-30T06:53:45.675Z,4.50
2022-10-30T06:54:47.196Z,4.60
2022-10-30T06:55:59.875Z,4.68
2022-10-30T06:57:01.969Z,4.93
2022-10-30T06:58:03.590Z,4.53
2022-10-30T06:59:05.108Z,4.50
2022-10-30T07:00:07.943Z,4.38
2022-10-30T07:01:09.545Z,4.55
2022-10-30T07:02:11.574Z,4.80
2022-10-30T07:03:13.165Z,4.80
2022-10-30T07:04:15.036Z,4.85
2022-10-30T07:05:16.692Z,4.70
2022-10-30T07:06:18.454Z,4.57
2022-10-30T07:07:20.047Z,4.80
2022-10-30T07:08:21.569Z,4.38
2022-10-30T07:09:23.109Z,4.60
2022-10-30T07:10:24.703Z,4.30
2022-10-30T07:11:26.192Z,4.32
2022-10-30T07:12:27.699Z,4.80
2022-10-30T07:13:29.213Z,4.68
2022-10-30T07:14:30.718Z,4.55
2022-10-30T07:15:32.336Z,5.00
2022-10-30T07:16:33.874Z,4.70
2022-10-30T07:17:35.461Z,4.45
2022-10-30T07:18:37.096Z,4.70
2022-10-30T07:19:38.603Z,4.82
2022-10-30T07:20:40.128Z,5.13
2022-10-30T07:21:41.741Z,4.70
2022-10-30T07:22:43.268Z,5.00
2022-10-30T07:23:44.808Z,4.80
2022-10-30T07:24:46.325Z,4.90
2022-10-30T07:25:47.995Z,4.80
2022-10-30T07:26:49.519Z,4.28
2022-10-30T07:27:52.776Z,4.90
2022-10-30T07:28:54.393Z,4.90
2022-10-30T07:29:55.937Z,4.95
2022-10-30T07:31:00.559Z,4.85
2022-10-30T07:32:03.384Z,4.70
2022-10-30T07:33:07.128Z,4.97
2022-10-30T07:34:08.647Z,4.55
2022-10-30T07:35:12.782Z,4.72
2022-10-30T07:36:15.053Z,5.03
2022-10-30T07:37:16.653Z,5.10
2022-10-30T07:38:18.194Z,4.53
2022-10-30T07:39:19.716Z,4.80
2022-10-30T07:40:21.769Z,4.68
2022-10-30T07:41:23.291Z,4.50
2022-10-30T07:42:24.828Z,4.70
2022-10-30T07:43:26.328Z,4.60
2022-10-30T07:44:27.854Z,5.00
2022-10-30T07:45:29.888Z,4.68
2022-10-30T07:46:31.437Z,4.53
2022-10-30T07:47:33.004Z,4.93
2022-10-30T07:48:34.499Z,4.90
2022-10-30T07:49:35.997Z,4.97
2022-10-30T07:50:37.561Z,4.90
2022-10-30T07:51:39.116Z,4.47
2022-10-30T07:52:40.661Z,4.97
2022-10-30T07:53:42.217Z,4.95
2022-10-30T07:54:43.795Z,4.68
2022-10-30T07:55:45.474Z,4.43
2022-10-30T07:56:46.990Z,4.93
2022-10-30T07:57:49.393Z,4.70
2022-10-30T07:58:50.921Z,4.53
2022-10-30T07:59:52.447Z,4.22
2022-10-30T08:00:54.261Z,4.60
2022-10-30T08:01:55.890Z,4.80
2022-10-30T08:02:58.593Z,4.78
2022-10-30T08:04:00.488Z,4.40
2022-10-30T08:05:02.448Z,4.95
2022-10-30T08:06:04.228Z,4.90
2022-10-30T08:07:05.791Z,4.40
2022-10-30T08:08:08.273Z,4.78
2022-10-30T08:09:10.240Z,4.82
2022-10-30T08:10:11.748Z,4.47
2022-10-30T08:11:13.312Z,4.68
2022-10-30T08:12:15.108Z,4.97
2022-10-30T08:13:18.340Z,4.53
2022-10-30T08:14:20.966Z,4.50
2022-10-30T08:15:23.928Z,4.45
2022-10-30T08:16:25.601Z,4.78
2022-10-30T08:17:27.434Z,4.70
2022-10-30T08:18:29.042Z,4.82
2022-10-30T08:19:30.782Z,4.97
2022-10-30T08:20:32.299Z,4.40
2022-10-30T08:21:33.907Z,4.38
2022-10-30T08:22:35.449Z,4.43
2022-10-30T08:23:37.269Z,4.90
2022-10-30T08:24:38.781Z,4.78
2022-10-30T08:25:40.278Z,4.93
2022-10-30T08:26:41.802Z,4.32
2022-10-30T08:27:59.154Z,4.72
2022-10-30T08:29:00.709Z,4.43
2022-10-30T08:30:02.300Z,4.57
2022-10-30T08:31:04.137Z,4.30
2022-10-30T08:32:05.810Z,4.43
2022-10-30T08:33:11.069Z,4.60
2022-10-30T08:34:12.590Z,4.70
2022-10-30T08:35:18.706Z,5.13
2022-10-30T08:36:21.753Z,4.93
2022-10-30T08:37:23.468Z,4.90
2022-10-30T08:38:26.406Z,4.80
2022-10-30T08:39:27.938Z,4.70
2022-10-30T08:40:29.795Z,4.85
2022-10-30T08:41:31.449Z,4.53
2022-10-30T08:42:32.947Z,4.78
2022-10-30T08:43:34.772Z,4.43
2022-10-30T08:44:36.288Z,4.40
2022-10-30T08:45:37.877Z,5.10
2022-10-30T08:46:39.431Z,5.00
2022-10-30T08:47:40.937Z,4.70
2022-10-30T08:48:42.445Z,5.07
2022-10-30T08:49:43.960Z,4.57
2022-10-30T08:50:45.681Z,4.68
2022-10-30T08:51:47.261Z,4.97
2022-10-30T08:52:50.895Z,4.43
2022-10-30T08:53:55.403Z,4.75
2022-10-30T08:54:56.999Z,4.97
2022-10-30T08:55:58.524Z,4.78
2022-10-30T08:57:00.040Z,4.68
2022-10-30T08:58:01.792Z,4.63
2022-10-30T08:59:03.342Z,4.55
2022-10-30T09:00:06.413Z,4.60
2022-10-30T09:01:07.983Z,4.60
2022-10-30T09:02:09.692Z,4.90
2022-10-30T09:03:11.413Z,4.65
2022-10-30T09:04:12.910Z,4.70
2022-10-30T09:05:14.450Z,4.55
2022-10-30T09:06:15.942Z,4.90
2022-10-30T09:07:17.515Z,4.75
2022-10-30T09:08:19.007Z,4.95
2022-10-30T09:09:20.502Z,4.07
2022-10-30T09:10:22.039Z,4.80
2022-10-30T09:11:23.542Z,4.65
2022-10-30T09:12:25.085Z,4.72
2022-10-30T09:13:26.768Z,4.55
2022-10-30T09:14:28.363Z,4.47
2022-10-30T09:15:30.458Z,5.10
2022-10-30T09:16:32.004Z,4.68
2022-10-30T09:17:33.529Z,5.13
2022-10-30T09:18:35.098Z,5.07
2022-10-30T09:19:36.620Z,5.00
2022-10-30T09:20:38.562Z,4.88
2022-10-30T09:21:40.063Z,4.60
2022-10-30T09:22:42.259Z,3.95
2022-10-30T09:23:44.372Z,4.78
2022-10-30T09:24:45.960Z,4.85
2022-10-30T09:25:47.589Z,4.45
2022-10-30T09:26:49.302Z,4.97
2022-10-30T09:27:50.908Z,4.88
2022-10-30T09:28:52.454Z,4.60
2022-10-30T09:29:53.975Z,4.97
2022-10-30T09:30:56.946Z,4.53
2022-10-30T09:31:59.750Z,4.60
2022-10-30T09:33:03.116Z,4.40
2022-10-30T09:34:05.211Z,4.65
2022-10-30T09:35:07.594Z,4.60
2022-10-30T09:36:09.405Z,4.07
2022-10-30T09:37:10.919Z,4.50
2022-10-30T09:38:13.082Z,4.68
2022-10-30T09:39:14.719Z,4.20
2022-10-30T09:40:59.485Z,4.60
2022-10-30T09:42:49.728Z,4.30
2022-10-30T09:44:20.989Z,4.70
2022-10-30T09:45:46.986Z,4.00
2022-10-30T09:47:23.151Z,4.38
2022-10-30T09:48:43.829Z,4.22
2022-10-30T09:50:00.769Z,4.47
2022-10-30T09:51:26.481Z,4.25
2022-10-30T09:52:33.971Z,4.20
2022-10-30T09:53:35.438Z,4.55
2022-10-30T09:55:04.367Z,4.25
2022-10-30T09:56:17.938Z,4.53
2022-10-30T09:57:38.326Z,4.45
2022-10-30T09:58:52.700Z,4.20
2022-10-30T10:00:10.415Z,4.65
2022-10-30T10:01:14.988Z,4.45
2022-10-30T10:02:22.797Z,4.35
2022-10-30T10:03:38.988Z,4.15
2022-10-30T10:04:46.449Z,4.22
2022-10-30T10:05:56.256Z,4.25
2022-10-30T10:07:04.637Z,4.15
2022-10-30T10:08:13.430Z,3.88
2022-10-30T10:09:20.718Z,4.28
2022-10-30T10:10:44.255Z,4.18
2022-10-30T10:11:55.057Z,4.10
2022-10-30T10:13:01.046Z,4.05
2022-10-30T10:14:09.475Z,4.63
2022-10-30T10:15:33.576Z,4.30
2022-10-30T10:16:39.583Z,4.03
2022-10-30T10:17:44.693Z,4.00
2022-10-30T10:18:47.494Z,4.07
2022-10-30T10:19:55.679Z,4.13
2022-10-30T10:21:01.896Z,4.25
2022-10-30T10:22:14.375Z,4.18
2022-10-30T10:23:26.372Z,4.00
2022-10-30T10:24:40.348Z,3.90
2022-10-30T10:25:50.700Z,4.30
2022-10-30T10:27:01.712Z,4.63
2022-10-30T10:28:29.788Z,4.20
2022-10-30T10:29:39.301Z,3.90
2022-10-30T10:31:33.313Z,4.32
2022-10-30T10:32:57.616Z,4.07
2022-10-30T10:33:59.357Z,4.30
2022-10-30T10:35:16.164Z,4.30
2022-10-30T10:36:32.393Z,4.32
2022-10-30T10:37:36.818Z,4.18
2022-10-30T10:39:06.175Z,3.95
2022-10-30T10:40:16.589Z,4.20
2022-10-30T10:41:30.071Z,4.00
2022-10-30T10:43:06.483Z,4.30
2022-10-30T10:44:43.114Z,3.95
2022-10-30T10:45:54.357Z,4.50
2022-10-30T10:47:01.672Z,4.25
2022-10-30T10:48:05.809Z,4.20
2022-10-30T10:49:39.211Z,4.18
2022-10-30T10:50:56.897Z,4.05
2022-10-30T10:52:09.078Z,4.03
2022-10-30T10:53:23.857Z,4.28
2022-10-30T10:54:31.945Z,4.00
2022-10-30T10:55:36.922Z,4.00
2022-10-30T10:56:42.647Z,4.07
2022-10-30T10:57:45.397Z,4.13
2022-10-30T10:58:53.812Z,4.00
2022-10-30T11:00:02.756Z,3.80
2022-10-30T11:01:09.487Z,4.10
2022-10-30T11:02:42.100Z,4.20
2022-10-30T11:04:03.945Z,3.95
2022-10-30T11:05:16.236Z,3.83
2022-10-30T11:06:22.571Z,4.70
2022-10-30T11:07:29.484Z,3.97
2022-10-30T11:08:34.904Z,4.00
2022-10-30T11:09:36.510Z,4.13
2022-10-30T11:10:38.113Z,4.07
2022-10-30T11:11:39.646Z,4.10
2022-10-30T11:12:41.930Z,4.25
2022-10-30T11:13:45.676Z,3.78
2022-10-30T11:14:47.252Z,4.05
2022-10-30T11:16:15.808Z,3.83
2022-10-30T11:17:44.126Z,3.58
2022-10-30T11:18:47.658Z,4.32
2022-10-30T11:19:54.809Z,3.95
2022-10-30T11:21:25.089Z,3.53
2022-10-30T11:22:33.776Z,4.20
2022-10-30T11:23:39.075Z,3.83
2022-10-30T11:24:40.613Z,3.90
2022-10-30T11:25:42.175Z,3.75
2022-10-30T11:26:43.822Z,3.78
2022-10-30T11:27:48.849Z,3.65
2022-10-30T11:29:04.946Z,3.90
2022-10-30T11:30:07.017Z,3.80
2022-10-30T11:31:35.010Z,3.90
2022-10-30T11:32:36.648Z,3.67
2022-10-30T11:33:38.247Z,3.92
2022-10-30T11:34:39.829Z,3.80
2022-10-30T11:35:44.359Z,3.53
2022-10-30T11:36:48.042Z,3.70
2022-10-30T11:38:12.791Z,3.88
2022-10-30T11:39:25.891Z,3.78
2022-10-30T11:40:27.460Z,3.63
2022-10-30T11:41:29.052Z,3.75
2022-10-30T11:42:31.009Z,3.90
2022-10-30T11:43:32.840Z,3.65
2022-10-30T11:44:34.310Z,3.60
2022-10-30T11:45:41.658Z,3.60
2022-10-30T11:46:43.247Z,3.60
2022-10-30T11:47:46.465Z,3.60
2022-10-30T11:48:54.657Z,3.45
2022-10-30T11:50:01.901Z,3.80
2022-10-30T11:51:04.148Z,3.70
2022-10-30T11:52:06.859Z,3.42
2022-10-30T11:53:17.647Z,4.18
2022-10-30T11:54:22.232Z,3.47
2022-10-30T11:55:28.351Z,3.70
2022-10-30T11:56:31.825Z,3.35
2022-10-30T11:57:37.819Z,3.45
2022-10-30T11:58:45.993Z,3.53
2022-10-30T11:59:48.055Z,3.53
2022-10-30T12:01:00.947Z,3.55
2022-10-30T12:02:19.493Z,3.45
2022-10-30T12:03:41.540Z,3.60
2022-10-30T12:04:43.059Z,3.60
2022-10-30T12:05:46.452Z,3.60
2022-10-30T12:07:15.733Z,3.78
2022-10-30T12:08:19.918Z,3.28
2022-10-30T12:09:22.571Z,3.70
2022-10-30T12:10:29.820Z,3.67
2022-10-30T12:11:34.339Z,3.35
2022-10-30T12:12:42.542Z,3.40
2022-10-30T12:13:44.286Z,3.05
2022-10-30T12:14:45.837Z,3.20
2022-10-30T12:15:50.089Z,3.40
2022-10-30T12:16:54.507Z,3.70
2022-10-30T12:18:01.723Z,3.42
2022-10-30T12:19:08.701Z,3.30
2022-10-30T12:20:15.105Z,3.65
2022-10-30T12:21:20.223Z,3.28
2022-10-30T12:22:33.339Z,3.35
2022-10-30T12:23:35.157Z,3.80
2022-10-30T12:24:39.105Z,3.40
2022-10-30T12:25:47.797Z,3.35
2022-10-30T12:26:53.281Z,3.30
2022-10-30T12:28:14.036Z,3.28
2022-10-30T12:29:18.560Z,3.53
2022-10-30T12:30:21.021Z,3.47
2022-10-30T12:31:50.451Z,3.35
2022-10-30T12:33:06.500Z,3.33
2022-10-30T12:34:40.303Z,3.25
2022-10-30T12:35:46.693Z,3.50
2022-10-30T12:37:01.532Z,3.65
2022-10-30T12:38:06.325Z,3.47
2022-10-30T12:39:16.918Z,3.08
2022-10-30T12:40:30.256Z,3.60
2022-10-30T12:41:39.566Z,3.38
2022-10-30T12:42:49.822Z,3.55
2022-10-30T12:43:59.045Z,3.35
2022-10-30T12:45:12.356Z,3.53
2022-10-30T12:46:27.315Z,3.38
2022-10-30T12:47:47.481Z,3.50
2022-10-30T12:48:56.400Z,3.28
2022-10-30T12:51:42.723Z,3.92
2022-10-30T12:52:50.773Z,3.75
2022-10-30T12:54:07.133Z,3.55
2022-10-30T12:55:14.666Z,3.80
2022-10-30T12:56:26.085Z,3.50
2022-10-30T12:57:37.236Z,3.20
2022-10-30T12:58:50.733Z,3.28
2022-10-30T13:00:13.676Z,3.70
2022-10-30T13:01:36.075Z,3.80
2022-10-30T13:03:01.406Z,3.38
2022-10-30T13:04:10.686Z,3.63
2022-10-30T13:05:24.204Z,3.42
2022-10-30T13:06:32.751Z,3.70
2022-10-30T13:07:41.499Z,3.72
2022-10-30T13:09:02.622Z,3.50
2022-10-30T13:10:34.200Z,3.10
2022-10-30T13:11:59.403Z,3.30
2022-10-30T13:13:13.378Z,3.33
2022-10-30T13:14:20.280Z,3.45
2022-10-30T13:15:37.569Z,3.67
2022-10-30T13:16:39.076Z,3.35
2022-10-30T13:17:40.577Z,3.42
2022-10-30T13:18:42.154Z,3.20
2022-10-30T13:19:47.928Z,3.30
2022-10-30T13:21:31.269Z,3.33
2022-10-30T13:22:45.577Z,2.90
2022-10-30T13:23:53.238Z,3.28
2022-10-30T13:25:36.076Z,3.65
2022-10-30T13:26:55.589Z,3.13
2022-10-30T13:28:16.708Z,3.58
2022-10-30T13:29:20.958Z,3.03
2022-10-30T13:30:27.790Z,3.35
2022-10-30T13:31:42.635Z,3.22
2022-10-30T13:32:49.982Z,3.00
2022-10-30T13:34:11.544Z,3.60
2022-10-30T13:35:24.433Z,3.92
2022-10-30T13:36:29.031Z,3.35
2022-10-30T13:37:36.667Z,3.40
2022-10-30T13:38:56.813Z,4.22
2022-10-30T13:40:14.596Z,4.10
2022-10-30T13:41:49.298Z,4.00
2022-10-30T13:43:15.735Z,3.75
2022-10-30T13:44:40.271Z,4.18
2022-10-30T13:45:58.871Z,4.05
2022-10-30T13:47:19.165Z,4.35
2022-10-30T13:48:34.327Z,3.92
2022-10-30T13:49:57.677Z,4.82
2022-10-30T13:51:11.221Z,4.35
2022-10-30T13:52:18.844Z,4.47
2022-10-30T13:53:28.073Z,4.68
2022-10-30T13:54:35.867Z,4.63
2022-10-30T13:55:40.096Z,4.80
2022-10-30T13:56:44.401Z,4.53
2022-10-30T13:58:02.290Z,4.68
2022-10-30T13:59:42.355Z,4.53
2022-10-30T14:01:08.162Z,4.80
2022-10-30T14:02:21.775Z,4.78
2022-10-30T14:04:04.505Z,4.75
2022-10-30T14:05:26.865Z,4.97
2022-10-30T14:06:37.405Z,4.65
2022-10-30T14:07:46.612Z,4.80
2022-10-30T14:09:18.189Z,5.05
2022-10-30T14:10:41.448Z,4.50
2022-10-30T14:11:42.993Z,4.57
2022-10-30T14:12:57.729Z,4.55
2022-10-30T14:14:11.620Z,4.40
2022-10-30T14:15:30.542Z,4.47
2022-10-30T14:16:34.286Z,4.93
2022-10-30T14:17:35.804Z,4.53
2022-10-30T14:18:44.917Z,5.07
2022-10-30T14:20:10.172Z,4.53
2022-10-30T14:21:31.963Z,4.35
2022-10-30T14:22:36.054Z,4.38
2022-10-30T14:23:38.434Z,4.40
2022-10-30T14:24:45.090Z,4.40
2022-10-30T14:26:09.523Z,4.38
2022-10-30T14:27:11.612Z,4.20
2022-10-30T14:28:22.229Z,4.47
2022-10-30T14:29:29.549Z,4.40
2022-10-30T14:30:34.351Z,4.63
2022-10-30T14:31:36.989Z,4.53
2022-10-30T14:32:40.461Z,3.85
2022-10-30T14:33:50.679Z,4.07
2022-10-30T14:34:54.944Z,4.15
2022-10-30T14:36:23.049Z,4.43
2022-10-30T14:37:26.857Z,4.63
2022-10-30T14:38:35.220Z,4.00
2022-10-30T14:39:45.252Z,4.18
2022-10-30T14:41:11.207Z,3.95
2022-10-30T14:42:24.914Z,4.10
2022-10-30T14:43:35.869Z,3.95